Time;durP1;ratioP1;P1;durP2;ratioP2;P2;SDS_P1;SDS_P2;PMS_P1;PMS_P2;Temp;Humidity;BMP_temperature;BMP_pressure;BME280_temperature;BME280_humidity;BME280_pressure;Samples;Min_cycle;Max_cycle;Signal;HPM_P1;HPM_P2
2021/12/26 00:02:10;;;;;;;6.10;2.47;;;-4.30;85.30;;;;;;5034938;28;20068;-85
2021/12/26 00:04:36;;;;;;;5.18;2.03;;;-4.30;86.60;;;;;;5035088;28;20045;-85
2021/12/26 00:07:02;;;;;;;6.97;2.50;;;-4.30;86.50;;;;;;5034610;28;20129;-85
2021/12/26 00:09:28;;;;;;;7.38;2.65;;;-4.40;86.70;;;;;;5034905;28;20140;-85
2021/12/26 00:11:54;;;;;;;5.43;2.20;;;-4.40;86.40;;;;;;5034630;28;20124;-84
2021/12/26 00:14:20;;;;;;;6.90;2.53;;;-4.40;87.30;;;;;;5017303;28;20053;-84
2021/12/26 00:16:46;;;;;;;6.00;2.07;;;-4.40;86.40;;;;;;5034373;28;20165;-84
2021/12/26 00:19:12;;;;;;;6.20;2.40;;;-4.50;87.10;;;;;;5034484;28;20084;-84
2021/12/26 00:21:38;;;;;;;6.85;2.15;;;-4.50;86.20;;;;;;5034595;28;20275;-84
2021/12/26 00:24:04;;;;;;;5.57;2.10;;;-4.40;86.80;;;;;;5034360;28;20085;-84
2021/12/26 00:26:32;;;;;;;6.70;2.75;;;-4.40;86.40;;;;;;5034740;28;20057;-84
2021/12/26 00:29:00;;;;;;;6.78;2.60;;;-4.40;86.00;;;;;;5016571;28;20046;-84
2021/12/26 00:31:26;;;;;;;6.30;2.47;;;-4.50;86.00;;;;;;5016854;28;20081;-84
2021/12/26 00:33:52;;;;;;;5.53;2.30;;;-4.60;86.20;;;;;;5034241;28;20104;-84
2021/12/26 00:36:18;;;;;;;4.68;1.88;;;-4.50;86.90;;;;;;5015574;28;20089;-83
2021/12/26 00:38:44;;;;;;;8.97;2.30;;;-4.60;86.80;;;;;;5033691;28;20100;-80
2021/12/26 00:41:09;;;;;;;5.40;1.80;;;-4.60;86.80;;;;;;5016675;28;20083;-84
2021/12/26 00:43:35;;;;;;;4.57;2.03;;;-4.50;87.20;;;;;;5034222;28;20087;-84
2021/12/26 00:46:01;;;;;;;5.90;2.10;;;-4.50;86.70;;;;;;5033927;28;20316;-84
2021/12/26 00:48:27;;;;;;;5.00;2.10;;;-4.60;87.50;;;;;;5034251;28;20100;-84
2021/12/26 00:50:53;;;;;;;8.07;2.25;;;-4.60;86.80;;;;;;5016093;28;20128;-83
2021/12/26 00:53:19;;;;;;;4.05;1.45;;;-4.60;87.40;;;;;;5034443;28;20518;-85
2021/12/26 00:55:45;;;;;;;4.67;1.93;;;-4.60;87.30;;;;;;5034052;28;20045;-81
2021/12/26 00:58:11;;;;;;;5.33;1.90;;;-4.60;87.30;;;;;;4983977;28;20397;-84
2021/12/26 01:00:41;;;;;;;3.90;1.40;;;-4.70;86.90;;;;;;5033974;28;20054;-84
2021/12/26 01:03:09;;;;;;;5.97;1.70;;;-4.70;87.00;;;;;;5016012;28;20064;-84
2021/12/26 01:05:37;;;;;;;4.85;2.10;;;-4.70;86.90;;;;;;5033809;28;20057;-84
2021/12/26 01:08:04;;;;;;;3.70;1.42;;;-4.70;86.60;;;;;;5015983;28;20085;-84
2021/12/26 01:10:41;;;;;;;6.90;1.63;;;-4.70;86.90;;;;;;5033763;28;20454;-85
2021/12/26 01:13:21;;;;;;;5.32;1.80;;;-4.70;86.00;;;;;;5033174;28;20548;-84
2021/12/26 01:15:49;;;;;;;5.13;1.67;;;-4.60;85.90;;;;;;5034075;28;20057;-84
2021/12/26 01:18:16;;;;;;;5.20;1.90;;;-4.60;86.30;;;;;;5033569;28;20127;-84
2021/12/26 01:20:49;;;;;;;4.93;1.83;;;-4.50;84.60;;;;;;5033419;28;20509;-84
2021/12/26 01:23:17;;;;;;;5.20;2.35;;;-4.60;85.90;;;;;;5016088;28;20483;-85
2021/12/26 01:25:44;;;;;;;5.72;2.05;;;-4.60;84.20;;;;;;5033487;28;20560;-85
2021/12/26 01:28:10;;;;;;;7.63;1.98;;;-4.60;85.50;;;;;;5015532;28;20048;-85
2021/12/26 01:30:38;;;;;;;5.53;1.90;;;-4.60;83.60;;;;;;5033431;28;20046;-84
2021/12/26 01:33:06;;;;;;;6.82;2.10;;;-4.70;84.40;;;;;;5033077;28;20366;-85
2021/12/26 01:35:32;;;;;;;8.98;2.97;;;-4.70;84.70;;;;;;5033029;28;20456;-85
2021/12/26 01:37:58;;;;;;;5.87;2.27;;;-4.70;85.60;;;;;;5032632;28;20069;-85
2021/12/26 01:40:23;;;;;;;8.43;2.00;;;-4.60;84.10;;;;;;5015156;28;20064;-85
2021/12/26 01:42:49;;;;;;;5.67;2.00;;;-4.60;84.70;;;;;;5015502;28;20042;-85
2021/12/26 01:45:15;;;;;;;4.83;1.60;;;-4.60;84.10;;;;;;5032848;28;20087;-85
2021/12/26 01:47:41;;;;;;;4.63;1.70;;;-4.70;83.60;;;;;;5033088;28;20064;-85
2021/12/26 01:50:08;;;;;;;4.67;1.47;;;-4.60;83.20;;;;;;5014871;28;20509;-85
2021/12/26 01:52:34;;;;;;;6.20;1.70;;;-4.60;84.40;;;;;;5033033;28;20048;-85
2021/12/26 01:55:12;;;;;;;6.37;2.20;;;-4.60;83.30;;;;;;5032664;28;20049;-85
2021/12/26 01:57:37;;;;;;;6.93;1.65;;;-4.60;83.40;;;;;;5033131;28;20132;-85
2021/12/26 02:00:05;;;;;;;11.20;1.93;;;-4.60;83.30;;;;;;5032598;28;20132;-84
2021/12/26 02:02:31;;;;;;;4.20;1.70;;;-4.60;83.10;;;;;;5032900;28;20056;-85
2021/12/26 02:04:57;;;;;;;7.87;2.20;;;-4.70;82.80;;;;;;5032763;28;20057;-84
2021/12/26 02:07:23;;;;;;;4.50;2.00;;;-4.70;83.30;;;;;;5015427;28;20103;-85
2021/12/26 02:09:48;;;;;;;5.77;1.80;;;-4.70;82.60;;;;;;5032819;28;20116;-85
2021/12/26 02:12:14;;;;;;;3.77;1.57;;;-4.80;82.30;;;;;;5015100;28;20056;-85
2021/12/26 02:14:40;;;;;;;7.40;1.80;;;-4.80;82.90;;;;;;5032748;28;20053;-85
2021/12/26 02:17:05;;;;;;;5.43;1.97;;;-4.80;83.00;;;;;;5014854;28;20045;-84
2021/12/26 02:19:31;;;;;;;3.50;1.50;;;-4.80;83.00;;;;;;5032749;28;20466;-85
2021/12/26 02:24:44;;;;;;;5.65;2.05;;;-4.70;83.10;;;;;;5032669;28;20060;-85
2021/12/26 02:29:53;;;;;;;3.80;1.70;;;-4.80;82.30;;;;;;5032683;28;20053;-85
2021/12/26 02:32:19;;;;;;;4.27;1.60;;;-4.90;81.80;;;;;;5032313;28;20057;-85
2021/12/26 02:34:45;;;;;;;3.93;1.80;;;-4.80;82.10;;;;;;5032685;28;20050;-85
2021/12/26 02:37:10;;;;;;;5.17;1.90;;;-4.80;82.10;;;;;;5014668;28;20501;-85
2021/12/26 02:39:36;;;;;;;5.30;1.67;;;-4.90;81.80;;;;;;5032417;28;20049;-85
2021/12/26 02:42:03;;;;;;;4.32;1.88;;;-4.80;81.80;;;;;;5032207;28;20143;-84
2021/12/26 02:44:28;;;;;;;5.70;1.92;;;-4.80;81.10;;;;;;5032462;28;20053;-85
2021/12/26 02:46:54;;;;;;;5.57;1.80;;;-4.70;80.70;;;;;;5032520;28;20123;-85
2021/12/26 02:49:25;;;;;;;5.13;1.70;;;-4.80;80.60;;;;;;5032249;28;20132;-86
2021/12/26 02:51:51;;;;;;;5.20;1.90;;;-4.80;81.30;;;;;;5014903;28;20057;-85
2021/12/26 02:54:18;;;;;;;5.70;1.60;;;-4.80;80.80;;;;;;5014443;28;20088;-85
2021/12/26 02:56:45;;;;;;;5.85;1.63;;;-4.80;80.30;;;;;;5032360;28;20052;-85
2021/12/26 02:59:10;;;;;;;6.65;2.08;;;-4.80;80.50;;;;;;5033938;28;20402;-85
2021/12/26 03:01:36;;;;;;;4.97;1.57;;;-4.80;78.70;;;;;;5036132;28;20045;-85
2021/12/26 03:04:04;;;;;;;3.73;1.70;;;-4.80;79.70;;;;;;5035648;28;20138;-85
2021/12/26 03:06:40;;;;;;;5.07;1.90;;;-4.80;79.50;;;;;;5035983;28;20276;-85
2021/12/26 03:09:06;;;;;;;5.25;1.85;;;-4.80;79.80;;;;;;5035413;28;20056;-85
2021/12/26 03:11:32;;;;;;;4.60;1.60;;;-4.80;79.30;;;;;;5035947;28;20052;-85
2021/12/26 03:14:00;;;;;;;4.63;1.67;;;-4.80;79.50;;;;;;5036050;28;20045;-85
2021/12/26 03:16:26;;;;;;;3.53;1.58;;;-4.80;79.40;;;;;;5018080;28;20057;-85
2021/12/26 03:18:59;;;;;;;3.80;1.60;;;-4.80;78.60;;;;;;5018282;28;20494;-85
2021/12/26 03:21:27;;;;;;;4.40;1.67;;;-4.90;79.30;;;;;;5017678;28;20095;-85
2021/12/26 03:23:53;;;;;;;5.32;1.80;;;-4.90;79.70;;;;;;5035569;28;20540;-85
2021/12/26 03:26:19;;;;;;;5.40;2.10;;;-4.90;78.80;;;;;;5035268;28;20046;-85
2021/12/26 03:28:44;;;;;;;4.83;1.83;;;-4.90;79.10;;;;;;5035779;28;20045;-85
2021/12/26 03:31:11;;;;;;;3.40;1.40;;;-4.90;78.90;;;;;;5017722;28;20091;-85
2021/12/26 03:33:37;;;;;;;5.38;2.00;;;-4.90;79.50;;;;;;5017783;28;20087;-85
2021/12/26 03:36:03;;;;;;;4.63;2.13;;;-4.90;79.10;;;;;;5035703;28;20084;-85
2021/12/26 03:38:29;;;;;;;5.05;1.60;;;-4.90;79.20;;;;;;5034873;28;20096;-84
2021/12/26 03:40:56;;;;;;;3.72;1.67;;;-4.90;79.00;;;;;;5017859;28;20136;-85
2021/12/26 03:43:22;;;;;;;7.30;2.00;;;-4.90;78.80;;;;;;5034875;28;20045;-84
2021/12/26 03:45:50;;;;;;;4.65;1.75;;;-5.00;78.80;;;;;;5035147;28;20469;-85
2021/12/26 03:48:18;;;;;;;4.50;1.70;;;-5.00;79.70;;;;;;5034641;28;20120;-84
2021/12/26 03:50:44;;;;;;;4.22;1.60;;;-5.00;79.00;;;;;;5017628;28;20133;-84
2021/12/26 03:53:11;;;;;;;4.28;1.70;;;-5.00;78.80;;;;;;5017048;28;20433;-84
2021/12/26 03:55:38;;;;;;;5.18;1.90;;;-5.00;78.30;;;;;;5035046;28;20050;-84
2021/12/26 03:58:04;;;;;;;4.15;1.42;;;-4.90;78.20;;;;;;5017459;28;20420;-85
2021/12/26 04:00:31;;;;;;;4.50;1.98;;;-5.00;78.90;;;;;;5034687;28;20056;-85
2021/12/26 04:02:57;;;;;;;3.92;1.40;;;-5.10;78.30;;;;;;5034856;28;20065;-85
2021/12/26 04:05:23;;;;;;;7.73;1.90;;;-5.00;79.30;;;;;;5034582;28;20041;-85
2021/12/26 04:07:50;;;;;;;3.30;1.73;;;-5.10;78.90;;;;;;5034999;28;20337;-85
2021/12/26 04:10:17;;;;;;;4.88;2.22;;;-5.00;79.50;;;;;;5034220;28;20041;-85
2021/12/26 04:12:47;;;;;;;3.92;1.30;;;-5.10;78.70;;;;;;5034792;28;20110;-85
2021/12/26 04:15:16;;;;;;;4.32;1.80;;;-5.10;79.40;;;;;;5034426;28;20072;-84
2021/12/26 04:17:42;;;;;;;4.93;1.83;;;-5.10;79.30;;;;;;5034915;28;20134;-84
2021/12/26 04:20:09;;;;;;;7.43;2.17;;;-5.10;79.70;;;;;;5017193;28;20061;-85
2021/12/26 04:22:36;;;;;;;4.13;1.60;;;-5.10;78.40;;;;;;5034492;28;20065;-84
2021/12/26 04:25:03;;;;;;;4.03;1.67;;;-5.10;79.20;;;;;;5034540;28;20049;-84
2021/12/26 04:27:28;;;;;;;4.05;1.60;;;-5.10;79.00;;;;;;5016579;28;20048;-84
2021/12/26 04:29:54;;;;;;;4.80;1.57;;;-5.20;78.40;;;;;;5034498;28;20338;-85
2021/12/26 04:32:21;;;;;;;4.85;1.90;;;-5.20;79.10;;;;;;5034096;28;20046;-85
2021/12/26 04:34:47;;;;;;;5.82;2.20;;;-5.10;78.50;;;;;;5017111;28;20053;-85
2021/12/26 04:37:13;;;;;;;3.95;1.70;;;-5.20;78.70;;;;;;5016548;28;20072;-84
2021/12/26 04:39:39;;;;;;;5.17;1.53;;;-5.10;78.30;;;;;;5034138;28;20061;-84
2021/12/26 04:42:05;;;;;;;3.47;1.60;;;-5.20;79.00;;;;;;5034061;28;20553;-85
2021/12/26 04:44:31;;;;;;;3.88;1.52;;;-5.20;79.00;;;;;;5034010;28;20045;-85
2021/12/26 04:46:57;;;;;;;4.57;1.52;;;-5.20;78.30;;;;;;5016223;28;20064;-85
2021/12/26 04:49:23;;;;;;;6.07;1.80;;;-5.20;78.90;;;;;;5033632;28;20041;-84
2021/12/26 04:51:49;;;;;;;4.10;1.70;;;-5.20;79.50;;;;;;5034000;28;20045;-84
2021/12/26 04:54:15;;;;;;;6.43;1.73;;;-5.20;79.60;;;;;;5033684;28;20287;-84
2021/12/26 04:56:41;;;;;;;3.30;1.50;;;-5.20;79.30;;;;;;5016923;28;20093;-84
2021/12/26 04:59:06;;;;;;;4.00;1.70;;;-5.20;78.90;;;;;;5016271;28;20727;-84
2021/12/26 05:01:33;;;;;;;3.90;1.40;;;-5.20;78.90;;;;;;5033615;28;20092;-84
2021/12/26 05:03:59;;;;;;;4.18;1.60;;;-5.20;78.70;;;;;;4999671;28;20046;-85
2021/12/26 05:06:28;;;;;;;4.33;1.63;;;-5.20;79.00;;;;;;5033495;28;20056;-84
2021/12/26 05:08:54;;;;;;;3.85;1.50;;;-5.10;78.40;;;;;;5033657;28;20079;-84
2021/12/26 05:11:20;;;;;;;5.00;1.60;;;-5.20;78.60;;;;;;5033613;28;20509;-83
2021/12/26 05:13:45;;;;;;;4.27;1.70;;;-5.10;78.50;;;;;;5033612;28;20091;-84
2021/12/26 05:16:11;;;;;;;4.93;1.70;;;-5.10;78.90;;;;;;5033579;28;20046;-84
2021/12/26 05:18:37;;;;;;;4.82;1.90;;;-5.10;78.70;;;;;;5033311;28;20128;-85
2021/12/26 05:21:03;;;;;;;5.17;1.70;;;-5.20;78.80;;;;;;5032906;28;20128;-85
2021/12/26 05:23:29;;;;;;;5.60;1.70;;;-5.20;78.90;;;;;;5033099;28;20544;-84
2021/12/26 05:25:54;;;;;;;5.43;1.93;;;-5.20;78.90;;;;;;5033454;28;20075;-85
2021/12/26 05:28:20;;;;;;;6.00;1.90;;;-5.20;78.60;;;;;;5032964;28;20107;-84
2021/12/26 05:30:46;;;;;;;6.47;1.80;;;-5.10;78.10;;;;;;5033414;28;20041;-85
2021/12/26 05:33:12;;;;;;;4.57;1.53;;;-5.10;78.90;;;;;;5033269;28;20049;-85
2021/12/26 05:35:38;;;;;;;5.78;1.95;;;-5.10;78.50;;;;;;5015484;28;20085;-85
2021/12/26 05:38:04;;;;;;;6.40;1.83;;;-5.20;78.80;;;;;;5033464;28;20107;-85
2021/12/26 05:40:30;;;;;;;5.47;2.73;;;-5.20;78.80;;;;;;5015312;28;20796;-84
2021/12/26 05:42:55;;;;;;;5.23;1.97;;;-5.20;78.60;;;;;;5015660;28;20053;-85
2021/12/26 05:45:21;;;;;;;5.80;2.23;;;-5.30;79.10;;;;;;5033000;28;20045;-84
2021/12/26 05:47:47;;;;;;;5.70;2.10;;;-5.20;79.30;;;;;;5015292;28;20405;-85
2021/12/26 05:50:16;;;;;;;6.10;2.00;;;-5.20;79.10;;;;;;5033011;28;20049;-85
2021/12/26 05:52:42;;;;;;;4.20;1.63;;;-5.20;78.70;;;;;;5032590;28;20107;-85
2021/12/26 05:55:08;;;;;;;5.25;2.10;;;-5.20;78.40;;;;;;5015415;28;20081;-85
2021/12/26 05:57:35;;;;;;;5.30;1.90;;;-5.20;79.00;;;;;;5032743;28;20085;-84
2021/12/26 06:00:03;;;;;;;5.65;1.77;;;-5.30;79.70;;;;;;5015569;28;20394;-85
2021/12/26 06:02:29;;;;;;;5.53;2.03;;;-5.20;79.20;;;;;;5032534;28;20052;-85
2021/12/26 06:04:55;;;;;;;4.07;1.77;;;-5.20;79.10;;;;;;5032897;28;20037;-85
2021/12/26 06:07:20;;;;;;;6.23;2.20;;;-5.20;78.40;;;;;;5032859;28;20045;-85
2021/12/26 06:09:47;;;;;;;6.23;2.30;;;-5.20;78.90;;;;;;5015027;28;20050;-84
2021/12/26 06:12:13;;;;;;;5.05;1.90;;;-5.20;77.80;;;;;;5032769;28;20128;-85
2021/12/26 06:14:38;;;;;;;5.60;1.87;;;-5.20;78.30;;;;;;5032373;28;20132;-84
2021/12/26 06:17:04;;;;;;;5.90;2.43;;;-5.20;78.90;;;;;;5032950;28;20041;-85
2021/12/26 06:19:30;;;;;;;6.30;2.03;;;-5.20;78.90;;;;;;5014939;28;20149;-84
2021/12/26 06:21:55;;;;;;;4.83;1.77;;;-5.20;79.60;;;;;;5015049;28;20050;-84
2021/12/26 06:24:21;;;;;;;8.57;2.23;;;-5.20;79.00;;;;;;5015130;28;20401;-85
2021/12/26 06:26:47;;;;;;;5.63;1.90;;;-5.20;78.70;;;;;;5031980;28;20059;-84
2021/12/26 06:29:13;;;;;;;6.47;2.25;;;-5.20;79.20;;;;;;5032459;28;20401;-84
2021/12/26 06:31:39;;;;;;;8.50;3.65;;;-5.20;78.80;;;;;;5032230;28;20045;-84
2021/12/26 06:34:05;;;;;;;5.27;2.00;;;-5.20;79.40;;;;;;5018623;28;20053;-85
2021/12/26 06:36:31;;;;;;;5.77;1.90;;;-5.30;79.20;;;;;;5036226;28;20057;-84
2021/12/26 06:38:56;;;;;;;6.87;1.53;;;-5.20;79.20;;;;;;5036382;28;20413;-85
2021/12/26 06:41:22;;;;;;;4.80;2.13;;;-5.20;79.20;;;;;;5036435;28;20641;-84
2021/12/26 06:43:48;;;;;;;3.67;1.80;;;-5.30;79.90;;;;;;5018462;28;20409;-85
2021/12/26 06:46:15;;;;;;;4.83;2.30;;;-5.30;79.50;;;;;;5036675;28;20051;-84
2021/12/26 06:48:41;;;;;;;5.63;2.13;;;-5.30;79.70;;;;;;5018522;28;20049;-84
2021/12/26 06:51:07;;;;;;;4.10;2.00;;;-5.30;79.80;;;;;;5036362;28;20191;-85
2021/12/26 06:53:33;;;;;;;5.07;1.88;;;-5.30;79.80;;;;;;5018528;28;20053;-84
2021/12/26 06:55:59;;;;;;;6.10;2.10;;;-5.30;79.40;;;;;;5036228;28;20053;-85
2021/12/26 06:58:25;;;;;;;5.97;2.23;;;-5.30;79.70;;;;;;5036215;28;20049;-85
2021/12/26 07:00:51;;;;;;;4.70;2.22;;;-5.30;79.70;;;;;;5035857;28;20134;-84
2021/12/26 07:03:17;;;;;;;5.60;2.38;;;-5.20;94.00;;;;;;5018340;28;20042;-85
2021/12/26 07:05:43;;;;;;;5.40;2.20;;;-5.10;93.00;;;;;;5035878;28;20057;-85
2021/12/26 07:08:09;;;;;;;5.90;2.30;;;-5.20;92.40;;;;;;5036095;28;20752;-85
2021/12/26 07:10:34;;;;;;;5.00;2.17;;;-5.20;92.30;;;;;;5017998;28;20048;-84
2021/12/26 07:13:00;;;;;;;6.33;2.00;;;-5.20;92.20;;;;;;5018238;28;20045;-84
2021/12/26 07:15:26;;;;;;;6.73;2.80;;;-5.20;92.40;;;;;;5018284;28;20050;-84
2021/12/26 07:17:52;;;;;;;6.60;2.23;;;-5.20;92.30;;;;;;5035278;28;20138;-85
2021/12/26 07:20:18;;;;;;;7.27;2.33;;;-5.20;92.30;;;;;;5035756;28;20052;-84
2021/12/26 07:22:46;;;;;;;5.35;2.35;;;-5.20;92.40;;;;;;5035245;28;20084;-84
2021/12/26 07:25:13;;;;;;;5.38;2.40;;;-5.30;92.20;;;;;;5035432;28;20041;-84
2021/12/26 07:27:39;;;;;;;6.05;2.13;;;-5.20;92.50;;;;;;5035206;28;20477;-84
2021/12/26 07:30:06;;;;;;;7.03;2.50;;;-5.20;83.10;;;;;;5035430;28;20042;-84
2021/12/26 07:32:32;;;;;;;5.57;2.40;;;-5.30;79.50;;;;;;5035618;28;20409;-84
2021/12/26 07:34:58;;;;;;;10.68;2.97;;;-5.30;79.80;;;;;;5035635;28;20110;-84
2021/12/26 07:37:25;;;;;;;5.50;2.23;;;-5.30;79.30;;;;;;5017601;28;20038;-84
2021/12/26 07:39:51;;;;;;;9.70;3.05;;;-5.40;79.80;;;;;;5017418;28;20052;-84
2021/12/26 07:42:16;;;;;;;7.23;2.60;;;-4.80;80.10;;;;;;5035505;28;20053;-84
2021/12/26 07:44:42;;;;;;;4.97;2.27;;;-5.40;79.50;;;;;;5034248;28;20505;-84
2021/12/26 07:47:08;;;;;;;7.10;2.57;;;-5.30;79.40;;;;;;5017707;28;20046;-84
2021/12/26 07:49:34;;;;;;;7.28;2.80;;;-5.30;79.60;;;;;;5017820;28;20046;-84
2021/12/26 07:52:00;;;;;;;6.57;2.70;;;-5.30;79.70;;;;;;5034918;28;20056;-84
2021/12/26 07:54:26;;;;;;;7.93;3.38;;;-5.30;80.00;;;;;;5035274;28;20045;-84
2021/12/26 07:56:54;;;;;;;7.90;3.05;;;-5.40;79.70;;;;;;5034744;28;20049;-84
2021/12/26 07:59:20;;;;;;;6.90;2.70;;;-5.30;79.80;;;;;;5035028;28;20049;-85
2021/12/26 08:01:46;;;;;;;5.90;2.70;;;-5.30;80.20;;;;;;5034731;28;20128;-85
2021/12/26 08:04:14;;;;;;;5.35;2.60;;;-5.30;79.60;;;;;;5034955;28;20049;-85
2021/12/26 08:06:40;;;;;;;6.72;2.85;;;-5.20;79.90;;;;;;5034535;28;20107;-85
2021/12/26 08:09:07;;;;;;;6.90;2.92;;;-5.30;79.00;;;;;;5034995;28;20128;-85
2021/12/26 08:11:34;;;;;;;7.25;2.80;;;-5.30;79.60;;;;;;5035087;28;20132;-85
2021/12/26 08:14:00;;;;;;;9.93;2.90;;;-5.30;80.10;;;;;;5034483;28;20370;-85
2021/12/26 08:16:26;;;;;;;6.78;2.92;;;-5.30;79.80;;;;;;5034869;28;20449;-85
2021/12/26 08:18:53;;;;;;;7.10;3.42;;;-5.30;80.00;;;;;;5034450;28;20049;-85
2021/12/26 08:21:19;;;;;;;6.30;2.67;;;-5.30;79.40;;;;;;5016654;28;20406;-83
2021/12/26 08:23:45;;;;;;;8.10;4.37;;;-5.10;79.40;;;;;;5034224;28;20037;-83
2021/12/26 08:26:11;;;;;;;6.47;2.58;;;-5.10;78.80;;;;;;5034580;28;20056;-83
2021/12/26 08:28:37;;;;;;;7.63;2.97;;;-5.10;79.00;;;;;;5034600;28;20045;-83
2021/12/26 08:31:04;;;;;;;8.07;3.88;;;-5.10;79.10;;;;;;5034175;28;20081;-83
2021/12/26 08:33:30;;;;;;;5.82;2.85;;;-5.10;79.50;;;;;;5034420;28;20083;-83
2021/12/26 08:35:56;;;;;;;6.17;2.67;;;-5.10;79.20;;;;;;5034059;28;20041;-83
2021/12/26 08:38:22;;;;;;;5.28;2.55;;;-5.00;79.20;;;;;;5034394;28;20049;-83
2021/12/26 08:40:53;;;;;;;6.40;2.87;;;-5.10;79.20;;;;;;5033997;28;20574;-81
2021/12/26 08:43:19;;;;;;;6.63;2.95;;;-5.00;79.10;;;;;;5034426;28;20045;-82
2021/12/26 08:45:45;;;;;;;5.97;2.60;;;-5.00;78.60;;;;;;5033860;28;20128;-80
2021/12/26 08:48:11;;;;;;;6.73;2.63;;;-4.90;78.40;;;;;;5034002;28;20266;-81
2021/12/26 08:50:37;;;;;;;6.63;3.70;;;-4.90;77.30;;;;;;5016452;28;20050;-81
2021/12/26 08:53:04;;;;;;;6.87;3.03;;;-4.80;78.60;;;;;;5035728;28;20146;-83
2021/12/26 08:55:30;;;;;;;7.55;3.30;;;-4.80;78.30;;;;;;5033660;28;20038;-83
2021/12/26 08:57:56;;;;;;;7.60;3.40;;;-4.60;78.00;;;;;;5033124;28;20060;-82
2021/12/26 09:00:23;;;;;;;7.00;3.15;;;-4.60;77.50;;;;;;5033862;28;20061;-83
2021/12/26 09:02:50;;;;;;;6.50;3.03;;;-4.60;77.30;;;;;;5015921;28;20077;-82
2021/12/26 09:05:16;;;;;;;7.35;3.03;;;-4.50;77.30;;;;;;5034053;28;20132;-82
2021/12/26 09:07:42;;;;;;;6.87;2.83;;;-4.50;76.90;;;;;;5033860;28;20133;-81
2021/12/26 09:10:10;;;;;;;6.22;2.63;;;-4.50;76.80;;;;;;5033493;28;20058;-81
2021/12/26 09:12:36;;;;;;;8.07;2.70;;;-4.40;77.20;;;;;;5033671;28;20485;-81
2021/12/26 09:15:03;;;;;;;7.85;2.80;;;-4.40;76.10;;;;;;5033267;28;20048;-81
2021/12/26 09:17:37;;;;;;;6.95;2.75;;;-4.30;76.70;;;;;;5131269;27;20395;-80
2021/12/26 09:20:05;;;;;;;7.03;3.20;;;-4.20;76.30;;;;;;5130632;27;20059;-79
2021/12/26 09:22:31;;;;;;;7.97;2.70;;;-4.20;74.60;;;;;;5131127;27;20046;-80
2021/12/26 09:24:56;;;;;;;7.73;3.33;;;-4.10;76.20;;;;;;5130734;27;20039;-79
2021/12/26 09:27:22;;;;;;;5.80;2.70;;;-4.00;74.10;;;;;;5130875;27;20151;-77
2021/12/26 09:29:48;;;;;;;9.93;2.87;;;-4.00;75.00;;;;;;5130220;27;20039;-77
2021/12/26 09:32:14;;;;;;;8.17;2.87;;;-3.90;75.40;;;;;;5130366;27;20039;-77
2021/12/26 09:34:39;;;;;;;5.70;2.40;;;-3.90;76.00;;;;;;5130494;27;20391;-79
2021/12/26 09:37:07;;;;;;;6.23;2.93;;;-3.80;74.70;;;;;;5129998;27;20438;-80
2021/12/26 09:39:34;;;;;;;7.03;2.97;;;-3.70;73.80;;;;;;5132729;27;20082;-78
2021/12/26 09:42:00;;;;;;;5.63;2.78;;;-3.70;73.40;;;;;;5130030;27;20505;-81
2021/12/26 09:44:26;;;;;;;6.33;2.90;;;-3.60;72.30;;;;;;5129090;28;20043;-82
2021/12/26 09:46:52;;;;;;;5.90;2.85;;;-3.60;73.60;;;;;;5129834;27;20084;-81
2021/12/26 09:49:19;;;;;;;7.20;2.70;;;-3.60;73.40;;;;;;5130227;27;20081;-81
2021/12/26 09:51:45;;;;;;;6.57;2.88;;;-3.50;73.50;;;;;;5129078;28;20469;-81
2021/12/26 09:54:11;;;;;;;6.93;3.00;;;;;;;;;;5129990;27;20039;-81
2021/12/26 09:56:37;;;;;;;6.10;2.92;;;;;;;;;;5129102;28;20320;-81
2021/12/26 09:59:14;;;;;;;6.00;2.83;;;;;;;;;;5129005;28;20051;-82
2021/12/26 10:01:43;;;;;;;7.78;2.67;;;-3.10;98.40;;;;;;5130536;27;20054;-82
2021/12/26 10:04:23;;;;;;;5.80;2.88;;;-3.00;79.40;;;;;;5130226;27;20055;-82
2021/12/26 10:06:51;;;;;;;6.32;3.10;;;-3.20;71.30;;;;;;5129748;27;20398;-82
2021/12/26 10:09:18;;;;;;;8.40;3.88;;;-3.20;72.50;;;;;;5130332;27;20039;-81
2021/12/26 10:11:50;;;;;;;7.38;2.50;;;-3.20;71.30;;;;;;5130369;27;20135;-80
2021/12/26 10:14:18;;;;;;;5.28;2.63;;;-3.10;70.50;;;;;;5130048;27;20044;-81
2021/12/26 10:16:48;;;;;;;6.45;2.80;;;-3.00;74.10;;;;;;5129824;27;20462;-81
2021/12/26 10:19:14;;;;;;;5.35;2.78;;;-2.80;82.60;;;;;;5129953;27;20047;-79
2021/12/26 10:21:43;;;;;;;6.47;2.80;;;-2.90;83.30;;;;;;5130267;27;20073;-80
2021/12/26 10:24:13;;;;;;;6.57;3.00;;;-2.80;85.10;;;;;;5129682;27;20285;-81
2021/12/26 10:26:51;;;;;;;6.43;2.83;;;-2.90;85.30;;;;;;5129106;28;20062;-82
2021/12/26 10:29:28;;;;;;;6.07;2.53;;;-2.80;85.20;;;;;;5115666;28;20035;-81
2021/12/26 10:32:04;;;;;;;6.47;2.80;;;-2.80;87.10;;;;;;5116309;28;20035;-77
2021/12/26 10:34:34;;;;;;;6.78;3.17;;;-2.80;86.40;;;;;;5116128;28;20054;-82
2021/12/26 10:37:02;;;;;;;6.75;2.67;;;-2.70;85.60;;;;;;5115617;28;20044;-82
2021/12/26 10:39:32;;;;;;;6.55;3.65;;;-2.60;88.00;;;;;;5115731;28;20503;-83
2021/12/26 10:42:04;;;;;;;6.18;2.67;;;-1.80;90.60;;;;;;5115664;28;20050;-78
2021/12/26 10:44:43;;;;;;;5.28;2.65;;;-2.70;90.70;;;;;;5116220;28;20043;-77
2021/12/26 10:47:11;;;;;;;7.00;2.60;;;;;;;;;;5115570;28;20046;-75
2021/12/26 10:49:42;;;;;;;8.40;3.22;;;;;;;;;;5115484;28;20549;-80
2021/12/26 10:52:28;;;;;;;6.28;3.10;;;;;;;;;;5114495;28;20527;-80
2021/12/26 10:54:56;;;;;;;6.68;3.10;;;;;;;;;;5115866;28;20089;-85
2021/12/26 10:57:24;;;;;;;7.55;3.30;;;;;;;;;;5115323;28;20131;-84
2021/12/26 11:00:08;;;;;;;7.45;3.75;;;-2.30;71.50;;;;;;5115454;28;20043;-82
2021/12/26 11:02:34;;;;;;;7.85;3.38;;;-2.30;72.70;;;;;;5115589;28;20483;-83
2021/12/26 11:05:06;;;;;;;6.35;3.05;;;-2.30;73.70;;;;;;5115288;28;20083;-80
2021/12/26 11:07:41;;;;;;;6.55;3.40;;;-2.30;72.10;;;;;;5115517;27;20048;-82
2021/12/26 11:10:30;;;;;;;7.55;3.47;;;-2.30;73.10;;;;;;5115173;28;20051;-80
2021/12/26 11:12:58;;;;;;;7.32;3.20;;;-2.30;73.40;;;;;;5115618;28;20083;-82
2021/12/26 11:15:28;;;;;;;6.45;3.05;;;-2.30;73.10;;;;;;5115046;28;20077;-80
2021/12/26 11:17:58;;;;;;;8.10;3.30;;;-2.20;73.30;;;;;;5115098;28;20550;-81
2021/12/26 11:20:29;;;;;;;6.68;3.38;;;-2.20;73.30;;;;;;5113888;28;20128;-79
2021/12/26 11:22:56;;;;;;;7.22;3.22;;;-2.10;73.20;;;;;;5115393;28;20051;-83
2021/12/26 11:25:23;;;;;;;8.93;3.45;;;-2.10;73.70;;;;;;5114805;28;20056;-83
2021/12/26 11:27:50;;;;;;;6.35;3.47;;;-2.10;73.60;;;;;;5115074;28;20039;-79
2021/12/26 11:30:17;;;;;;;6.72;3.67;;;-2.00;74.20;;;;;;5114739;28;20079;-79
2021/12/26 11:32:44;;;;;;;7.13;3.40;;;-1.90;73.90;;;;;;5114984;28;20078;-81
2021/12/26 11:35:10;;;;;;;7.07;3.08;;;-1.90;73.80;;;;;;5114446;28;20040;-81
2021/12/26 11:37:38;;;;;;;6.75;3.97;;;-1.90;74.20;;;;;;5114720;28;20055;-80
2021/12/26 11:40:06;;;;;;;7.28;4.10;;;;;;;;;;5112358;28;20079;-79
2021/12/26 11:42:32;;;;;;;6.10;3.20;;;;;;;;;;5114772;27;20051;-82
2021/12/26 11:45:20;;;;;;;6.53;3.22;;;-1.70;73.80;;;;;;5113994;28;20055;-82
2021/12/26 11:48:00;;;;;;;5.95;3.42;;;-1.70;74.40;;;;;;5114687;28;20079;-77
2021/12/26 11:50:26;;;;;;;8.15;3.58;;;-1.70;75.00;;;;;;5114210;28;20047;-76
2021/12/26 11:53:43;;;;;;;7.60;3.90;;;-1.70;75.60;;;;;;5114463;28;20050;-77
2021/12/26 11:56:34;;;;;;;6.47;3.50;;;-1.60;75.40;;;;;;5101305;28;20394;-79
2021/12/26 11:59:08;;;;;;;6.10;3.38;;;-1.60;75.80;;;;;;5114319;28;20507;-80
2021/12/26 12:01:40;;;;;;;7.70;3.47;;;-1.50;76.00;;;;;;5114361;28;20043;-80
2021/12/26 12:04:15;;;;;;;6.60;3.33;;;-1.50;75.90;;;;;;5114047;28;20062;-77
2021/12/26 12:06:41;;;;;;;8.45;3.53;;;-1.50;77.10;;;;;;5114252;28;20039;-79
2021/12/26 12:09:41;;;;;;;7.53;3.83;;;-1.50;76.90;;;;;;5113823;28;20498;-81
2021/12/26 12:12:12;;;;;;;7.45;3.05;;;-1.40;76.80;;;;;;5114126;28;20051;-78
2021/12/26 12:14:52;;;;;;;6.00;3.20;;;-1.30;77.10;;;;;;5114165;28;20047;-76
2021/12/26 12:17:19;;;;;;;8.70;3.47;;;-1.30;76.30;;;;;;5113272;28;20111;-77
2021/12/26 12:20:04;;;;;;;8.43;4.05;;;-1.20;76.70;;;;;;5114119;28;20050;-76
2021/12/26 12:22:30;;;;;;;6.78;4.03;;;-1.20;77.40;;;;;;5113514;28;20040;-75
2021/12/26 12:24:55;;;;;;;6.00;3.43;;;-1.30;78.00;;;;;;5113039;28;20536;-76
2021/12/26 12:27:23;;;;;;;7.27;3.80;;;-1.20;77.60;;;;;;5113730;28;20142;-76
2021/12/26 12:29:51;;;;;;;7.07;3.75;;;-1.20;78.10;;;;;;5114042;28;20123;-75
2021/12/26 12:32:23;;;;;;;6.65;3.78;;;-1.10;78.10;;;;;;5113380;28;20039;-75
2021/12/26 12:35:04;;;;;;;7.13;3.60;;;-1.20;77.80;;;;;;5113883;28;20051;-76
2021/12/26 12:37:46;;;;;;;6.45;3.40;;;-1.10;78.10;;;;;;5113435;28;20130;-76
2021/12/26 12:40:37;;;;;;;6.65;3.58;;;-1.10;78.00;;;;;;5113299;28;20043;-76
2021/12/26 12:43:11;;;;;;;8.88;3.95;;;-1.10;78.20;;;;;;5113694;28;20036;-75
2021/12/26 12:45:52;;;;;;;7.50;4.47;;;-1.00;78.40;;;;;;5113521;28;20528;-75
2021/12/26 12:48:25;;;;;;;8.05;3.65;;;-1.00;78.30;;;;;;5113081;28;20091;-76
2021/12/26 12:50:54;;;;;;;7.13;3.63;;;-1.00;78.50;;;;;;5113489;28;20078;-75
2021/12/26 12:53:44;;;;;;;7.90;3.75;;;-0.90;78.60;;;;;;5113113;28;20112;-76
2021/12/26 12:56:38;;;;;;;8.57;4.10;;;-0.90;78.90;;;;;;5112214;28;20048;-75
2021/12/26 12:59:33;;;;;;;8.20;4.15;;;-1.00;79.20;;;;;;5110559;28;20197;-78
2021/12/26 13:02:06;;;;;;;8.88;4.40;;;-1.00;79.50;;;;;;5110723;28;20060;-78